메인 페이지
METAR-TAF:

METAR-TAF

공항 :

Southwest Florida International Airport

Fort Myers, 플로리다, 미국

위도: 26-31-37N, 경도: 081-45-59W, 고도: 9m

현재 날씨관측

예보는 52분 전, 18:53시(UTC)에 발표되었습니다.
북서8kt
온도 23°C
습도 78%
기압 1012 hPa
시정: 16.1km
고도 1800ft 상공 구름 조금
고도 2400ft 상공 구름 많음
고도 3200ft 상공 흐림

METAR: KRSW 301853Z 31008KT 10SM FEW018 BKN024 OVC032 23/19 A2988 RMK AO2 SLP114 T02330189

시각: 14:45 (19:45 UTC)

예보

예보는 1 시간 59분 전, 17:46시(UTC)에 발표되었습니다.
예보 대상 시간: 30일 18시부터 01일 18시까지 (UTC)
북서12kt, 순간 최대 풍속 20kt
시정: 10km
고도 2000ft 상공 구름 많음
시계 내 소나기
30일 2100시부터 (UTC)
북서10kt
시정: 10km
고도 3500ft 상공 구름 많음
01일 0900시부터 (UTC)
11kt
시정: 10km
고도 3500ft 상공 구름 많음

TAF: KRSW 301746Z 3018/0118 31012G20KT P6SM VCSH BKN020 FM302100 31010KT P6SM BKN035 FM010900 35011KT P6SM BKN035

4,000개 이상의 공항 관측 자료 및 예보 (METAR 및 TAF 보고).

지도상에서 검색 가능한 기상관측소가 노란 점과 빨간 점으로 표시되어 있습니다.

기상관측소 명을 보려면 표시 위로 마우스를 이동하세요.

날씨 관측과 예보를 보려면 클릭하세요.

지도 변경 : 확대하려면 엑스 표시가 있는 녹색 버튼, 축소하려면 빼기 표시가 있는 녹색 버튼, 다음 페이지의 지도를 보려면 녹색 화살표를 클릭하세요.


METAR-TAF: